createdAt,value
2019-01-28T00:01:25.649Z,983.13
2019-01-28T00:02:25.564Z,983.14
2019-01-28T00:04:18.335Z,983.09
2019-01-28T00:05:18.260Z,983.15
2019-01-28T00:07:11.030Z,983.16
2019-01-28T00:08:10.950Z,983.13
2019-01-28T00:10:03.812Z,983.14
2019-01-28T00:11:03.716Z,983.12
2019-01-28T00:12:56.478Z,983.11
2019-01-28T00:13:56.388Z,983.16
2019-01-28T00:15:49.201Z,983.14
2019-01-28T00:16:49.088Z,983.13
2019-01-28T00:18:41.887Z,983.10
2019-01-28T00:19:41.786Z,983.11
2019-01-28T00:21:35.158Z,983.12
2019-01-28T00:22:34.981Z,983.16
2019-01-28T00:24:27.811Z,983.20
2019-01-28T00:25:27.703Z,983.20
2019-01-28T00:27:20.480Z,983.19
2019-01-28T00:28:20.398Z,983.23
2019-01-28T00:30:13.196Z,983.21
2019-01-28T00:31:13.104Z,983.19
2019-01-28T00:33:05.949Z,983.22
2019-01-28T00:34:05.861Z,983.21
2019-01-28T00:35:58.645Z,983.24
2019-01-28T00:36:58.560Z,983.25
2019-01-28T00:38:51.360Z,983.25
2019-01-28T00:39:51.286Z,983.27
2019-01-28T00:41:44.069Z,983.23
2019-01-28T00:42:43.992Z,983.23
2019-01-28T00:44:37.645Z,983.29
2019-01-28T00:45:37.529Z,983.27
2019-01-28T00:47:30.308Z,983.30
2019-01-28T00:48:30.254Z,983.30
2019-01-28T00:50:23.047Z,983.33
2019-01-28T00:51:22.929Z,983.30
2019-01-28T00:53:15.699Z,983.32
2019-01-28T00:54:15.624Z,983.32
2019-01-28T00:56:08.393Z,983.40
2019-01-28T00:57:08.363Z,983.37
2019-01-28T00:59:01.095Z,983.36
2019-01-28T01:00:01.007Z,983.42
2019-01-28T01:01:53.813Z,983.31
2019-01-28T01:02:53.711Z,983.33
2019-01-28T01:04:46.516Z,983.35
2019-01-28T01:05:46.438Z,983.33
2019-01-28T01:07:39.220Z,983.40
2019-01-28T01:08:39.138Z,983.40
2019-01-28T01:10:31.962Z,983.40
2019-01-28T01:11:31.839Z,983.47
2019-01-28T01:13:24.633Z,983.47
2019-01-28T01:14:24.550Z,983.46
2019-01-28T01:16:17.348Z,983.51
2019-01-28T01:17:17.261Z,983.53
2019-01-28T01:19:10.045Z,983.55
2019-01-28T01:20:09.963Z,983.55
2019-01-28T01:22:02.774Z,983.59
2019-01-28T01:23:02.661Z,983.61
2019-01-28T01:24:55.463Z,983.57
2019-01-28T01:25:55.354Z,983.63
2019-01-28T01:27:48.123Z,983.63
2019-01-28T01:28:48.050Z,983.64
2019-01-28T01:30:40.837Z,983.65
2019-01-28T01:31:40.747Z,983.65
2019-01-28T01:33:33.523Z,983.68
2019-01-28T01:34:33.441Z,983.70
2019-01-28T01:36:26.260Z,983.72
2019-01-28T01:37:26.146Z,983.73
2019-01-28T01:39:18.962Z,983.74
2019-01-28T01:40:18.859Z,983.75
2019-01-28T01:42:11.603Z,983.73
2019-01-28T01:43:11.531Z,983.71
2019-01-28T01:45:04.313Z,983.74
2019-01-28T01:46:04.229Z,983.74
2019-01-28T01:47:57.062Z,983.81
2019-01-28T01:48:56.943Z,983.81
2019-01-28T01:50:49.707Z,983.83
2019-01-28T01:51:49.622Z,983.80
2019-01-28T01:53:42.442Z,983.85
2019-01-28T01:54:42.313Z,983.82
2019-01-28T01:57:07.790Z,983.82
2019-01-28T01:58:07.654Z,983.84
2019-01-28T02:00:00.496Z,983.84
2019-01-28T02:01:00.395Z,983.84
2019-01-28T02:02:53.243Z,983.82
2019-01-28T02:03:53.093Z,983.83
2019-01-28T02:05:45.852Z,983.84
2019-01-28T02:06:45.771Z,983.85
2019-01-28T02:08:38.602Z,983.85
2019-01-28T02:09:38.535Z,983.86
2019-01-28T02:11:31.309Z,983.90
2019-01-28T02:12:31.256Z,983.90
2019-01-28T02:14:23.995Z,983.92
2019-01-28T02:15:23.916Z,983.93
2019-01-28T02:17:16.669Z,983.94
2019-01-28T02:18:16.600Z,983.90
2019-01-28T02:20:09.394Z,983.97
2019-01-28T02:21:09.297Z,983.95
2019-01-28T02:23:02.047Z,984.00
2019-01-28T02:24:01.991Z,983.98
2019-01-28T02:25:54.743Z,984.01
2019-01-28T02:26:54.661Z,983.97
2019-01-28T02:28:47.424Z,983.99
2019-01-28T02:29:47.347Z,984.00
2019-01-28T02:31:40.114Z,984.02
2019-01-28T02:32:40.045Z,983.99
2019-01-28T02:34:32.794Z,984.01
2019-01-28T02:35:32.719Z,984.01
2019-01-28T02:37:25.461Z,984.08
2019-01-28T02:38:25.393Z,984.11
2019-01-28T02:40:18.156Z,984.11
2019-01-28T02:41:18.080Z,984.11
2019-01-28T02:43:10.841Z,984.14
2019-01-28T02:44:10.887Z,984.13
2019-01-28T02:46:03.533Z,984.15
2019-01-28T02:47:03.454Z,984.15
2019-01-28T02:48:56.232Z,984.17
2019-01-28T02:49:56.255Z,984.20
2019-01-28T02:51:49.094Z,984.20
2019-01-28T02:52:48.955Z,984.23
2019-01-28T02:54:41.645Z,984.24
2019-01-28T02:55:41.555Z,984.24
2019-01-28T02:57:34.396Z,984.27
2019-01-28T02:58:34.292Z,984.28
2019-01-28T03:00:27.034Z,984.32
2019-01-28T03:01:26.951Z,984.29
2019-01-28T03:03:19.700Z,984.35
2019-01-28T03:04:19.636Z,984.33
2019-01-28T03:06:12.403Z,984.38
2019-01-28T03:07:12.394Z,984.36
2019-01-28T03:09:05.071Z,984.41
2019-01-28T03:10:05.003Z,984.41
2019-01-28T03:11:57.840Z,984.48
2019-01-28T03:12:57.682Z,984.49
2019-01-28T03:14:50.947Z,984.47
2019-01-28T03:15:50.981Z,984.54
2019-01-28T03:17:43.617Z,984.55
2019-01-28T03:18:43.551Z,984.49
2019-01-28T03:20:36.353Z,984.62
2019-01-28T03:21:36.224Z,984.62
2019-01-28T03:23:41.876Z,984.62
2019-01-28T03:24:41.918Z,984.63
2019-01-28T03:26:34.586Z,984.68
2019-01-28T03:27:34.513Z,984.70
2019-01-28T03:29:27.341Z,984.71
2019-01-28T03:30:27.313Z,984.78
2019-01-28T03:32:20.126Z,984.82
2019-01-28T03:33:20.039Z,984.78
2019-01-28T03:35:12.801Z,984.85
2019-01-28T03:36:12.731Z,984.87
2019-01-28T03:38:05.491Z,984.86
2019-01-28T03:39:05.452Z,984.86
2019-01-28T03:40:58.277Z,984.86
2019-01-28T03:41:58.218Z,984.87
2019-01-28T03:43:51.124Z,984.93
2019-01-28T03:44:50.974Z,984.94
2019-01-28T03:46:43.707Z,984.92
2019-01-28T03:47:43.626Z,984.92
2019-01-28T03:49:36.484Z,984.96
2019-01-28T03:50:36.412Z,984.94
2019-01-28T03:52:29.179Z,985.03
2019-01-28T03:53:29.091Z,984.98
2019-01-28T03:55:21.932Z,985.06
2019-01-28T03:56:21.933Z,985.06
2019-01-28T03:58:14.655Z,985.08
2019-01-28T03:59:14.578Z,985.14
2019-01-28T04:01:07.347Z,985.09
2019-01-28T04:02:07.312Z,985.13
2019-01-28T04:04:00.063Z,985.14
2019-01-28T04:04:59.954Z,985.18
2019-01-28T04:06:52.798Z,985.22
2019-01-28T04:07:52.694Z,985.18
2019-01-28T04:09:45.423Z,985.18
2019-01-28T04:10:45.353Z,985.23
2019-01-28T04:12:38.272Z,985.31
2019-01-28T04:13:38.075Z,985.27
2019-01-28T04:15:32.512Z,985.19
2019-01-28T04:16:30.756Z,985.32
2019-01-28T04:18:23.637Z,985.32
2019-01-28T04:19:23.556Z,985.36
2019-01-28T04:21:16.315Z,985.37
2019-01-28T04:22:16.248Z,985.32
2019-01-28T04:24:08.990Z,985.40
2019-01-28T04:25:08.915Z,985.36
2019-01-28T04:27:01.696Z,985.45
2019-01-28T04:28:01.643Z,985.47
2019-01-28T04:29:56.122Z,985.50
2019-01-28T04:30:56.052Z,985.48
2019-01-28T04:32:48.814Z,985.55
2019-01-28T04:33:48.740Z,985.61
2019-01-28T04:35:41.493Z,985.57
2019-01-28T04:36:41.432Z,985.60
2019-01-28T04:38:34.199Z,985.60
2019-01-28T04:39:34.121Z,985.63
2019-01-28T04:41:26.923Z,985.62
2019-01-28T04:42:26.845Z,985.62
2019-01-28T04:44:20.160Z,985.62
2019-01-28T04:45:19.661Z,985.68
2019-01-28T04:47:12.411Z,985.68
2019-01-28T04:48:12.441Z,985.69
2019-01-28T04:50:05.073Z,985.75
2019-01-28T04:51:05.003Z,985.75
2019-01-28T04:52:57.787Z,985.76
2019-01-28T04:53:57.704Z,985.78
2019-01-28T04:55:50.461Z,985.83
2019-01-28T04:56:50.398Z,985.87
2019-01-28T04:58:43.168Z,985.88
2019-01-28T04:59:43.078Z,985.86
2019-01-28T05:01:36.002Z,985.88
2019-01-28T05:02:35.783Z,985.87
2019-01-28T05:04:28.610Z,985.85
2019-01-28T05:05:28.472Z,985.85
2019-01-28T05:07:21.237Z,985.84
2019-01-28T05:08:21.153Z,985.87
2019-01-28T05:10:13.908Z,985.86
2019-01-28T05:11:13.864Z,985.90
2019-01-28T05:13:06.661Z,985.86
2019-01-28T05:14:06.577Z,985.85
2019-01-28T05:15:59.336Z,985.84
2019-01-28T05:16:59.263Z,985.89
2019-01-28T05:18:52.092Z,985.88
2019-01-28T05:19:51.994Z,985.88
2019-01-28T05:21:44.763Z,985.86
2019-01-28T05:22:44.698Z,985.89
2019-01-28T05:24:37.484Z,985.87
2019-01-28T05:25:37.411Z,985.87
2019-01-28T05:27:30.277Z,985.86
2019-01-28T05:28:30.183Z,985.81
2019-01-28T05:30:23.006Z,985.84
2019-01-28T05:31:22.935Z,985.86
2019-01-28T05:33:15.713Z,985.85
2019-01-28T05:34:15.621Z,985.90
2019-01-28T05:36:08.440Z,985.88
2019-01-28T05:37:08.297Z,985.89
2019-01-28T05:39:01.099Z,985.88
2019-01-28T05:40:00.988Z,985.93
2019-01-28T05:41:53.866Z,985.94
2019-01-28T05:42:53.794Z,985.94
2019-01-28T05:44:46.586Z,985.97
2019-01-28T05:45:46.600Z,985.98
2019-01-28T05:47:39.338Z,986.01
2019-01-28T05:48:39.252Z,986.01
2019-01-28T05:50:32.007Z,986.07
2019-01-28T05:51:31.943Z,986.04
2019-01-28T05:53:24.746Z,986.04
2019-01-28T05:54:24.644Z,985.99
2019-01-28T05:56:17.401Z,986.02
2019-01-28T05:57:17.302Z,986.03
2019-01-28T05:59:10.078Z,986.08
2019-01-28T06:00:09.995Z,986.11
2019-01-28T06:02:02.768Z,986.09
2019-01-28T06:03:02.689Z,986.11
2019-01-28T06:04:55.546Z,986.07
2019-01-28T06:05:55.487Z,986.05
2019-01-28T06:07:48.249Z,986.06
2019-01-28T06:08:48.167Z,986.05
2019-01-28T06:10:40.915Z,986.05
2019-01-28T06:11:40.844Z,986.04
2019-01-28T06:13:33.616Z,986.05
2019-01-28T06:14:34.702Z,986.05
2019-01-28T06:16:26.315Z,986.05
2019-01-28T06:17:26.239Z,986.08
2019-01-28T06:19:18.994Z,986.04
2019-01-28T06:20:18.910Z,986.05
2019-01-28T06:22:11.682Z,986.15
2019-01-28T06:23:11.589Z,986.11
2019-01-28T06:25:04.350Z,986.18
2019-01-28T06:26:04.284Z,986.16
2019-01-28T06:27:57.036Z,986.16
2019-01-28T06:28:56.970Z,986.19
2019-01-28T06:30:49.735Z,986.20
2019-01-28T06:31:49.647Z,986.11
2019-01-28T06:33:42.467Z,986.18
2019-01-28T06:34:42.389Z,986.24
2019-01-28T06:36:35.122Z,986.25
2019-01-28T06:37:35.054Z,986.33
2019-01-28T06:39:27.945Z,986.32
2019-01-28T06:40:27.756Z,986.28
2019-01-28T06:42:20.536Z,986.33
2019-01-28T06:43:20.431Z,986.35
2019-01-28T06:45:13.703Z,986.38
2019-01-28T06:46:13.605Z,986.37
2019-01-28T06:48:06.375Z,986.34
2019-01-28T06:49:06.305Z,986.31
2019-01-28T06:50:59.073Z,986.35
2019-01-28T06:51:58.982Z,986.36
2019-01-28T06:53:51.735Z,986.37
2019-01-28T06:54:51.662Z,986.37
2019-01-28T06:56:44.411Z,986.35
2019-01-28T06:57:44.330Z,986.33
2019-01-28T06:59:37.084Z,986.31
2019-01-28T07:00:37.007Z,986.34
2019-01-28T07:02:29.778Z,986.36
2019-01-28T07:03:29.710Z,986.34
2019-01-28T07:05:22.432Z,986.38
2019-01-28T07:06:22.358Z,986.38
2019-01-28T07:08:15.157Z,986.39
2019-01-28T07:09:15.073Z,986.40
2019-01-28T07:11:08.148Z,986.37
2019-01-28T07:12:08.069Z,986.42
2019-01-28T07:14:00.831Z,986.40
2019-01-28T07:15:00.754Z,986.41
2019-01-28T07:16:53.593Z,986.46
2019-01-28T07:17:55.084Z,986.47
2019-01-28T07:19:46.252Z,986.50
2019-01-28T07:20:46.146Z,986.45
2019-01-28T07:22:38.915Z,986.48
2019-01-28T07:23:38.808Z,986.47
2019-01-28T07:25:31.540Z,986.48
2019-01-28T07:26:31.501Z,986.49
2019-01-28T07:28:24.282Z,986.43
2019-01-28T07:29:24.231Z,986.41
2019-01-28T07:31:17.070Z,986.42
2019-01-28T07:32:16.886Z,986.36
2019-01-28T07:34:09.645Z,986.43
2019-01-28T07:35:09.541Z,986.44
2019-01-28T07:37:02.296Z,986.48
2019-01-28T07:38:02.210Z,986.49
2019-01-28T07:39:55.012Z,986.49
2019-01-28T07:40:54.956Z,986.55
2019-01-28T07:42:47.681Z,986.52
2019-01-28T07:43:47.601Z,986.52
2019-01-28T07:45:45.310Z,986.58
2019-01-28T07:46:40.282Z,986.54
2019-01-28T07:48:33.089Z,986.53
2019-01-28T07:49:32.987Z,986.53
2019-01-28T07:51:25.792Z,986.51
2019-01-28T07:52:25.721Z,986.52
2019-01-28T07:54:18.425Z,986.51
2019-01-28T07:55:18.412Z,986.54
2019-01-28T07:57:11.124Z,986.57
2019-01-28T07:58:11.035Z,986.60
2019-01-28T08:00:03.810Z,986.63
2019-01-28T08:01:03.757Z,986.65
2019-01-28T08:02:56.516Z,986.61
2019-01-28T08:03:56.440Z,986.63
2019-01-28T08:05:49.273Z,986.69
2019-01-28T08:06:49.143Z,986.69
2019-01-28T08:08:41.887Z,986.74
2019-01-28T08:09:41.820Z,986.72
2019-01-28T08:11:34.554Z,986.72
2019-01-28T08:12:34.478Z,986.74
2019-01-28T08:14:27.249Z,986.78
2019-01-28T08:15:27.150Z,986.80
2019-01-28T08:17:19.996Z,986.79
2019-01-28T08:18:19.834Z,986.79
2019-01-28T08:20:12.621Z,986.82
2019-01-28T08:21:12.550Z,986.84
2019-01-28T08:23:05.354Z,986.88
2019-01-28T08:24:05.236Z,986.81
2019-01-28T08:25:57.998Z,986.81
2019-01-28T08:26:57.926Z,986.84
2019-01-28T08:28:50.703Z,986.83
2019-01-28T08:29:50.615Z,986.83
2019-01-28T08:31:43.405Z,986.87
2019-01-28T08:32:43.307Z,986.78
2019-01-28T08:34:36.093Z,986.80
2019-01-28T08:35:36.017Z,986.77
2019-01-28T08:37:28.931Z,986.80
2019-01-28T08:38:28.723Z,986.79
2019-01-28T08:40:21.514Z,986.89
2019-01-28T08:41:21.427Z,986.89
2019-01-28T08:43:14.664Z,986.92
2019-01-28T08:44:14.132Z,986.87
2019-01-28T08:46:06.898Z,986.92
2019-01-28T08:47:06.847Z,986.91
2019-01-28T08:48:59.746Z,986.95
2019-01-28T08:49:59.578Z,986.91
2019-01-28T08:51:52.297Z,986.96
2019-01-28T08:52:52.235Z,986.92
2019-01-28T08:54:45.017Z,986.92
2019-01-28T08:55:44.937Z,986.93
2019-01-28T08:57:37.836Z,986.96
2019-01-28T08:58:37.733Z,986.92
2019-01-28T09:00:30.563Z,986.89
2019-01-28T09:01:30.492Z,986.92
2019-01-28T09:03:23.293Z,986.90
2019-01-28T09:04:23.241Z,986.91
2019-01-28T09:06:16.021Z,986.91
2019-01-28T09:07:16.355Z,986.92
2019-01-28T09:09:08.745Z,986.94
2019-01-28T09:10:08.650Z,986.98
2019-01-28T09:12:01.424Z,986.97
2019-01-28T09:13:01.367Z,987.02
2019-01-28T09:14:54.232Z,987.00
2019-01-28T09:15:54.080Z,987.04
2019-01-28T09:17:46.883Z,987.07
2019-01-28T09:18:46.793Z,987.04
2019-01-28T09:20:39.580Z,987.09
2019-01-28T09:21:39.506Z,987.04
2019-01-28T09:23:32.299Z,987.07
2019-01-28T09:24:32.230Z,987.05
2019-01-28T09:26:25.008Z,987.06
2019-01-28T09:27:24.944Z,987.06
2019-01-28T09:29:17.748Z,986.99
2019-01-28T09:30:17.698Z,987.07
2019-01-28T09:32:10.442Z,987.10
2019-01-28T09:33:10.381Z,987.07
2019-01-28T09:35:03.181Z,987.07
2019-01-28T09:36:03.170Z,987.05
2019-01-28T09:37:55.907Z,987.05
2019-01-28T09:38:55.844Z,987.07
2019-01-28T09:40:48.678Z,987.03
2019-01-28T09:41:48.550Z,987.07
2019-01-28T09:43:41.372Z,987.08
2019-01-28T09:44:41.281Z,987.00
2019-01-28T09:46:34.064Z,987.02
2019-01-28T09:47:34.052Z,987.02
2019-01-28T09:49:26.820Z,987.04
2019-01-28T09:50:26.741Z,987.04
2019-01-28T09:52:19.520Z,986.98
2019-01-28T09:53:19.453Z,986.94
2019-01-28T09:55:12.322Z,986.95
2019-01-28T09:56:12.176Z,987.01
2019-01-28T09:58:04.989Z,987.02
2019-01-28T09:59:04.958Z,987.03
2019-01-28T10:00:57.713Z,987.05
2019-01-28T10:01:57.720Z,987.06
2019-01-28T10:03:50.443Z,987.03
2019-01-28T10:04:50.363Z,987.05
2019-01-28T10:06:43.142Z,987.00
2019-01-28T10:07:43.074Z,987.04
2019-01-28T10:09:35.884Z,986.99
2019-01-28T10:10:35.810Z,987.08
2019-01-28T10:12:28.597Z,987.12
2019-01-28T10:13:28.543Z,987.11
2019-01-28T10:15:21.353Z,987.09
2019-01-28T10:16:21.267Z,987.15
2019-01-28T10:18:14.115Z,987.13
2019-01-28T10:19:13.989Z,987.12
2019-01-28T10:21:06.798Z,987.08
2019-01-28T10:22:06.719Z,987.14
2019-01-28T10:23:59.517Z,987.12
2019-01-28T10:24:59.423Z,987.01
2019-01-28T10:26:52.220Z,987.03
2019-01-28T10:27:52.191Z,987.11
2019-01-28T10:29:44.961Z,987.13
2019-01-28T10:30:44.885Z,987.09
2019-01-28T10:32:37.676Z,987.01
2019-01-28T10:33:37.601Z,987.13
2019-01-28T10:35:30.423Z,987.08
2019-01-28T10:36:34.202Z,987.04
2019-01-28T10:38:23.096Z,987.03
2019-01-28T10:39:23.030Z,987.04
2019-01-28T10:41:15.840Z,987.04
2019-01-28T10:42:15.769Z,987.08
2019-01-28T10:44:10.300Z,987.09
2019-01-28T10:45:08.523Z,987.10
2019-01-28T10:47:01.284Z,987.07
2019-01-28T10:48:01.426Z,987.03
2019-01-28T10:49:54.001Z,987.04
2019-01-28T10:50:53.923Z,987.02
2019-01-28T10:52:46.726Z,987.04
2019-01-28T10:53:46.657Z,987.06
2019-01-28T10:55:39.457Z,986.99
2019-01-28T10:56:39.384Z,986.98
2019-01-28T10:58:32.137Z,987.01
2019-01-28T10:59:32.084Z,987.05
2019-01-28T11:01:24.889Z,987.00
2019-01-28T11:02:24.803Z,986.99
2019-01-28T11:04:17.607Z,986.96
2019-01-28T11:05:17.514Z,986.92
2019-01-28T11:07:10.340Z,986.93
2019-01-28T11:08:10.367Z,986.98
2019-01-28T11:10:03.122Z,986.94
2019-01-28T11:11:03.081Z,986.90
2019-01-28T11:12:55.896Z,986.92
2019-01-28T11:13:55.723Z,986.89
2019-01-28T11:15:48.519Z,986.89
2019-01-28T11:16:48.443Z,986.87
2019-01-28T11:18:41.249Z,986.87
2019-01-28T11:19:41.171Z,986.81
2019-01-28T11:21:34.086Z,986.86
2019-01-28T11:22:33.950Z,986.80
2019-01-28T11:24:26.673Z,986.80
2019-01-28T11:25:26.586Z,986.82
2019-01-28T11:27:19.451Z,986.80
2019-01-28T11:28:19.324Z,986.85
2019-01-28T11:30:12.056Z,986.84
2019-01-28T11:31:12.042Z,986.84
2019-01-28T11:33:04.866Z,986.78
2019-01-28T11:34:04.686Z,986.87
2019-01-28T11:36:05.023Z,986.84
2019-01-28T11:36:57.382Z,986.87
2019-01-28T11:38:50.189Z,986.80
2019-01-28T11:39:50.211Z,986.83
2019-01-28T11:41:42.933Z,986.82
2019-01-28T11:42:42.816Z,986.82
2019-01-28T11:44:35.666Z,986.73
2019-01-28T11:45:35.653Z,986.70
2019-01-28T11:47:28.323Z,986.76
2019-01-28T11:48:28.248Z,986.75
2019-01-28T11:50:20.988Z,986.78
2019-01-28T11:51:20.910Z,986.76
2019-01-28T11:53:13.666Z,986.78
2019-01-28T11:54:13.636Z,986.77
2019-01-28T11:56:06.488Z,986.78
2019-01-28T11:57:06.292Z,986.82
2019-01-28T11:58:59.073Z,986.87
2019-01-28T11:59:59.001Z,986.82
2019-01-28T12:01:51.768Z,986.79
2019-01-28T12:02:51.685Z,986.81
2019-01-28T12:04:44.465Z,986.87
2019-01-28T12:05:44.382Z,986.81
2019-01-28T12:07:37.158Z,986.85
2019-01-28T12:08:37.122Z,986.87
2019-01-28T12:10:29.864Z,986.89
2019-01-28T12:11:29.783Z,986.86
2019-01-28T12:13:22.573Z,986.92
2019-01-28T12:14:22.488Z,986.90
2019-01-28T12:16:15.241Z,986.93
2019-01-28T12:17:15.165Z,986.92
2019-01-28T12:19:14.078Z,986.97
2019-01-28T12:20:07.865Z,986.97
2019-01-28T12:22:00.624Z,986.99
2019-01-28T12:23:00.544Z,986.97
2019-01-28T12:24:53.322Z,987.02
2019-01-28T12:25:53.244Z,987.00
2019-01-28T12:27:46.016Z,987.01
2019-01-28T12:28:45.996Z,987.01
2019-01-28T12:30:38.709Z,986.96
2019-01-28T12:31:38.633Z,986.94
2019-01-28T12:33:31.386Z,986.96
2019-01-28T12:34:31.313Z,986.94
2019-01-28T12:36:24.093Z,986.95
2019-01-28T12:37:24.011Z,986.93
2019-01-28T12:39:16.778Z,986.97
2019-01-28T12:40:16.697Z,987.00
2019-01-28T12:42:09.722Z,986.95
2019-01-28T12:43:09.632Z,986.99
2019-01-28T12:45:02.291Z,987.05
2019-01-28T12:46:03.416Z,987.04
2019-01-28T12:47:55.141Z,986.99
2019-01-28T12:48:54.985Z,987.01
2019-01-28T12:50:47.754Z,986.98
2019-01-28T12:51:47.684Z,986.99
2019-01-28T12:53:40.442Z,986.97
2019-01-28T12:54:40.361Z,986.96
2019-01-28T12:56:33.150Z,986.92
2019-01-28T12:57:33.062Z,986.92
2019-01-28T12:59:25.861Z,986.89
2019-01-28T13:00:25.792Z,986.91
2019-01-28T13:02:18.597Z,986.94
2019-01-28T13:03:18.491Z,986.92
2019-01-28T13:05:11.284Z,987.00
2019-01-28T13:06:11.265Z,986.97
2019-01-28T13:08:03.961Z,987.00
2019-01-28T13:09:03.940Z,986.98
2019-01-28T13:10:56.661Z,986.99
2019-01-28T13:11:56.588Z,986.96
2019-01-28T13:13:49.871Z,986.95
2019-01-28T13:14:49.821Z,986.94
2019-01-28T13:16:42.561Z,986.96
2019-01-28T13:17:42.477Z,986.96
2019-01-28T13:19:35.251Z,986.96
2019-01-28T13:20:35.178Z,986.93
2019-01-28T13:22:27.961Z,986.90
2019-01-28T13:23:27.897Z,986.90
2019-01-28T13:25:20.658Z,986.87
2019-01-28T13:26:20.601Z,986.87
2019-01-28T13:28:13.349Z,986.87
2019-01-28T13:29:13.266Z,986.90
2019-01-28T13:31:06.107Z,986.93
2019-01-28T13:32:05.965Z,986.86
2019-01-28T13:33:58.754Z,986.85
2019-01-28T13:34:58.660Z,986.87
2019-01-28T13:36:51.463Z,986.92
2019-01-28T13:37:51.374Z,986.85
2019-01-28T13:39:44.174Z,986.83
2019-01-28T13:40:44.149Z,986.87
2019-01-28T13:42:36.878Z,986.86
2019-01-28T13:43:36.809Z,986.90
2019-01-28T13:45:29.616Z,986.92
2019-01-28T13:46:29.508Z,986.92
2019-01-28T13:48:22.286Z,986.93
2019-01-28T13:49:22.227Z,986.92
2019-01-28T13:51:15.014Z,986.96
2019-01-28T13:52:14.917Z,986.95
2019-01-28T13:54:07.668Z,987.01
2019-01-28T13:55:07.601Z,987.04
2019-01-28T13:57:00.395Z,987.09
2019-01-28T13:58:00.327Z,986.99
2019-01-28T13:59:53.095Z,986.99
2019-01-28T14:00:53.014Z,987.03
2019-01-28T14:02:45.828Z,987.03
2019-01-28T14:03:45.728Z,987.07
2019-01-28T14:05:38.524Z,987.04
2019-01-28T14:06:38.454Z,986.96
2019-01-28T14:08:31.225Z,986.99
2019-01-28T14:09:31.155Z,986.97
2019-01-28T14:11:23.943Z,987.01
2019-01-28T14:12:23.846Z,986.99
2019-01-28T14:14:16.602Z,986.98
2019-01-28T14:15:16.535Z,987.00
2019-01-28T14:17:09.297Z,987.04
2019-01-28T14:18:09.278Z,986.99
2019-01-28T14:20:01.989Z,987.05
2019-01-28T14:21:01.948Z,986.99
2019-01-28T14:22:54.715Z,987.03
2019-01-28T14:23:54.609Z,987.02
2019-01-28T14:25:47.398Z,987.06
2019-01-28T14:26:47.297Z,987.01
2019-01-28T14:28:40.074Z,986.96
2019-01-28T14:29:39.992Z,987.00
2019-01-28T14:31:32.784Z,987.01
2019-01-28T14:32:32.739Z,986.99
2019-01-28T14:34:25.468Z,987.02
2019-01-28T14:35:25.389Z,987.00
2019-01-28T14:37:18.188Z,987.00
2019-01-28T14:38:18.104Z,986.98
2019-01-28T14:40:10.863Z,987.04
2019-01-28T14:41:10.790Z,987.02
2019-01-28T14:43:04.414Z,987.07
2019-01-28T14:44:04.325Z,987.07
2019-01-28T14:45:57.096Z,987.10
2019-01-28T14:46:57.014Z,987.09
2019-01-28T14:48:49.798Z,987.12
2019-01-28T14:49:54.435Z,987.09
2019-01-28T14:51:42.522Z,987.07
2019-01-28T14:52:42.436Z,987.10
2019-01-28T14:54:35.189Z,987.09
2019-01-28T14:55:35.128Z,987.07
2019-01-28T14:57:27.914Z,987.09
2019-01-28T14:58:27.828Z,987.09
2019-01-28T15:00:20.591Z,987.08
2019-01-28T15:01:20.521Z,987.09
2019-01-28T15:03:13.278Z,987.09
2019-01-28T15:04:13.206Z,987.14
2019-01-28T15:06:05.962Z,987.11
2019-01-28T15:07:05.874Z,987.11
2019-01-28T15:08:58.626Z,987.10
2019-01-28T15:09:58.562Z,987.10
2019-01-28T15:11:51.383Z,987.09
2019-01-28T15:12:51.291Z,987.09
2019-01-28T15:14:44.045Z,987.12
2019-01-28T15:15:43.975Z,987.09
2019-01-28T15:17:36.837Z,987.13
2019-01-28T15:18:36.670Z,987.09
2019-01-28T15:20:29.423Z,987.13
2019-01-28T15:21:29.405Z,987.12
2019-01-28T15:23:22.113Z,987.16
2019-01-28T15:24:22.030Z,987.17
2019-01-28T15:26:14.854Z,987.12
2019-01-28T15:27:14.726Z,987.14
2019-01-28T15:29:07.476Z,987.10
2019-01-28T15:30:07.411Z,987.11
2019-01-28T15:32:00.204Z,987.13
2019-01-28T15:33:00.140Z,987.13
2019-01-28T15:34:52.873Z,987.19
2019-01-28T15:35:52.806Z,987.26
2019-01-28T15:37:45.579Z,987.21
2019-01-28T15:38:45.497Z,987.26
2019-01-28T15:40:38.273Z,987.24
2019-01-28T15:41:38.183Z,987.25
2019-01-28T15:43:30.952Z,987.28
2019-01-28T15:44:30.873Z,987.28
2019-01-28T15:46:24.706Z,987.32
2019-01-28T15:47:23.601Z,987.28
2019-01-28T15:49:16.355Z,987.26
2019-01-28T15:50:16.271Z,987.39
2019-01-28T15:52:09.049Z,987.35
2019-01-28T15:53:08.981Z,987.38
2019-01-28T15:55:01.719Z,987.37
2019-01-28T15:56:01.642Z,987.39
2019-01-28T15:57:54.499Z,987.38
2019-01-28T15:58:54.388Z,987.42
2019-01-28T16:00:47.134Z,987.43
2019-01-28T16:01:47.070Z,987.41
2019-01-28T16:03:39.873Z,987.45
2019-01-28T16:04:39.790Z,987.53
2019-01-28T16:06:32.606Z,987.47
2019-01-28T16:07:32.533Z,987.52
2019-01-28T16:09:29.070Z,987.46
2019-01-28T16:10:25.249Z,987.47
2019-01-28T16:12:18.036Z,987.47
2019-01-28T16:13:17.952Z,987.46
2019-01-28T16:15:10.790Z,987.48
2019-01-28T16:16:10.723Z,987.50
2019-01-28T16:18:08.671Z,987.52
2019-01-28T16:19:03.416Z,987.53
2019-01-28T16:20:56.195Z,987.57
2019-01-28T16:21:56.388Z,987.57
2019-01-28T16:23:48.890Z,987.56
2019-01-28T16:24:48.820Z,987.59
2019-01-28T16:26:41.551Z,987.60
2019-01-28T16:27:41.494Z,987.61
2019-01-28T16:29:34.237Z,987.58
2019-01-28T16:30:34.165Z,987.61
2019-01-28T16:32:26.941Z,987.59
2019-01-28T16:33:26.845Z,987.61
2019-01-28T16:35:19.602Z,987.59
2019-01-28T16:36:19.544Z,987.62
2019-01-28T16:38:12.323Z,987.60
2019-01-28T16:39:12.236Z,987.60
2019-01-28T16:41:04.980Z,987.61
2019-01-28T16:42:04.943Z,987.60
2019-01-28T16:43:57.679Z,987.62
2019-01-28T16:44:57.596Z,987.61
2019-01-28T16:46:50.375Z,987.68
2019-01-28T16:47:50.322Z,987.66
2019-01-28T16:49:43.061Z,987.64
2019-01-28T16:50:42.977Z,987.68
2019-01-28T16:52:35.754Z,987.74
2019-01-28T16:53:35.671Z,987.72
2019-01-28T16:55:28.429Z,987.76
2019-01-28T16:56:28.361Z,987.76
2019-01-28T16:58:21.152Z,987.73
2019-01-28T16:59:21.052Z,987.76
2019-01-28T17:01:13.795Z,987.75
2019-01-28T17:02:13.722Z,987.76
2019-01-28T17:04:06.488Z,987.75
2019-01-28T17:05:06.409Z,987.76
2019-01-28T17:06:59.187Z,987.75
2019-01-28T17:07:59.139Z,987.77
2019-01-28T17:09:51.928Z,987.78
2019-01-28T17:10:51.803Z,987.81
2019-01-28T17:12:44.562Z,987.76
2019-01-28T17:13:44.523Z,987.78
2019-01-28T17:15:37.235Z,987.78
2019-01-28T17:16:37.168Z,987.79
2019-01-28T17:18:29.928Z,987.85
2019-01-28T17:19:29.847Z,987.81
2019-01-28T17:21:22.605Z,987.81
2019-01-28T17:22:22.533Z,987.83
2019-01-28T17:24:15.321Z,987.84
2019-01-28T17:25:15.223Z,987.82
2019-01-28T17:27:07.970Z,987.81
2019-01-28T17:28:07.908Z,987.84
2019-01-28T17:30:00.718Z,987.86
2019-01-28T17:31:00.628Z,987.89
2019-01-28T17:32:53.800Z,987.89
2019-01-28T17:33:53.458Z,987.86
2019-01-28T17:35:46.109Z,987.86
2019-01-28T17:36:46.080Z,987.89
2019-01-28T17:38:38.909Z,987.86
2019-01-28T17:39:38.833Z,987.88
2019-01-28T17:41:31.584Z,987.86
2019-01-28T17:42:31.513Z,987.90
2019-01-28T17:44:24.268Z,987.89
2019-01-28T17:45:24.185Z,987.90
2019-01-28T17:47:16.957Z,987.89
2019-01-28T17:48:16.902Z,987.87
2019-01-28T17:50:10.527Z,987.89
2019-01-28T17:51:10.415Z,987.94
2019-01-28T17:53:03.182Z,987.95
2019-01-28T17:54:03.161Z,987.91
2019-01-28T17:55:55.923Z,987.93
2019-01-28T17:56:55.794Z,987.90
2019-01-28T17:58:48.625Z,987.95